createdAt,value
2018-05-09T00:01:44.322Z,0.00
2018-05-09T00:02:44.626Z,0.00
2018-05-09T00:03:44.406Z,0.00
2018-05-09T00:05:44.473Z,0.00
2018-05-09T00:06:44.224Z,0.00
2018-05-09T00:07:44.214Z,0.00
2018-05-09T00:08:44.145Z,0.00
2018-05-09T00:10:44.117Z,0.00
2018-05-09T00:11:44.212Z,0.00
2018-05-09T00:12:44.437Z,0.00
2018-05-09T00:14:44.059Z,0.00
2018-05-09T00:15:44.188Z,0.00
2018-05-09T00:16:44.323Z,0.00
2018-05-09T00:17:44.077Z,0.00
2018-05-09T00:18:44.060Z,0.00
2018-05-09T00:19:43.992Z,0.00
2018-05-09T00:20:43.967Z,0.00
2018-05-09T00:21:43.958Z,0.00
2018-05-09T00:22:43.948Z,0.00
2018-05-09T00:23:44.275Z,0.00
2018-05-09T00:24:44.081Z,0.00
2018-05-09T00:25:44.201Z,0.00
2018-05-09T00:26:44.090Z,0.00
2018-05-09T00:27:44.003Z,0.00
2018-05-09T00:29:44.476Z,0.00
2018-05-09T00:30:44.603Z,0.00
2018-05-09T00:31:43.886Z,0.00
2018-05-09T00:32:43.798Z,0.00
2018-05-09T00:33:43.781Z,0.00
2018-05-09T00:34:43.784Z,0.00
2018-05-09T00:35:43.767Z,0.00
2018-05-09T00:36:44.159Z,0.00
2018-05-09T00:37:43.977Z,0.00
2018-05-09T00:38:43.708Z,0.00
2018-05-09T00:39:43.707Z,0.00
2018-05-09T00:40:43.768Z,0.00
2018-05-09T00:41:43.747Z,0.00
2018-05-09T00:42:43.991Z,0.00
2018-05-09T00:43:43.768Z,0.00
2018-05-09T00:44:43.750Z,0.00
2018-05-09T00:45:43.740Z,0.00
2018-05-09T00:46:43.698Z,0.00
2018-05-09T00:47:43.668Z,0.00
2018-05-09T00:48:43.880Z,0.00
2018-05-09T00:49:43.598Z,0.00
2018-05-09T00:52:43.645Z,0.00
2018-05-09T00:53:43.500Z,0.00
2018-05-09T00:54:43.873Z,0.00
2018-05-09T00:55:43.615Z,0.00
2018-05-09T00:56:43.604Z,0.00
2018-05-09T00:57:43.573Z,0.00
2018-05-09T00:58:43.493Z,0.00
2018-05-09T00:59:43.408Z,0.00
2018-05-09T01:00:43.695Z,0.00
2018-05-09T01:01:43.379Z,0.00
2018-05-09T01:03:43.393Z,0.00
2018-05-09T01:04:43.584Z,0.00
2018-05-09T01:05:43.401Z,0.00
2018-05-09T01:06:43.605Z,0.00
2018-05-09T01:07:43.292Z,0.00
2018-05-09T01:10:43.496Z,0.00
2018-05-09T01:12:43.515Z,0.00
2018-05-09T01:13:43.301Z,0.00
2018-05-09T01:14:43.280Z,0.00
2018-05-09T01:16:43.300Z,0.00
2018-05-09T01:17:43.379Z,0.00
2018-05-09T01:18:43.480Z,0.00
2018-05-09T01:19:43.903Z,0.00
2018-05-09T01:20:43.156Z,0.00
2018-05-09T01:21:43.168Z,0.00
2018-05-09T01:22:43.200Z,0.00
2018-05-09T01:23:43.184Z,0.00
2018-05-09T01:25:43.463Z,0.00
2018-05-09T01:27:43.002Z,0.00
2018-05-09T01:28:43.056Z,0.00
2018-05-09T01:29:43.088Z,0.00
2018-05-09T01:32:43.260Z,0.00
2018-05-09T01:33:42.891Z,0.00
2018-05-09T01:34:42.966Z,0.00
2018-05-09T01:35:42.969Z,0.00
2018-05-09T01:36:43.098Z,0.00
2018-05-09T01:38:43.128Z,0.00
2018-05-09T01:39:42.901Z,0.00
2018-05-09T01:40:42.986Z,0.00
2018-05-09T01:41:42.857Z,0.00
2018-05-09T01:42:42.877Z,0.00
2018-05-09T01:43:42.910Z,0.00
2018-05-09T01:44:42.733Z,0.00
2018-05-09T01:45:43.189Z,0.00
2018-05-09T01:47:42.756Z,0.00
2018-05-09T01:48:42.792Z,0.00
2018-05-09T01:49:42.781Z,0.00
2018-05-09T01:50:42.762Z,0.00
2018-05-09T01:51:42.649Z,0.00
2018-05-09T01:52:42.959Z,0.00
2018-05-09T01:53:42.602Z,0.00
2018-05-09T01:54:42.583Z,0.00
2018-05-09T01:55:42.684Z,0.00
2018-05-09T01:56:42.601Z,0.00
2018-05-09T01:57:42.873Z,0.00
2018-05-09T01:58:42.530Z,0.00
2018-05-09T01:59:42.882Z,0.00
2018-05-09T02:00:42.500Z,0.00
2018-05-09T02:01:42.478Z,0.00
2018-05-09T02:02:42.461Z,0.00
2018-05-09T02:03:42.494Z,0.00
2018-05-09T02:04:42.628Z,0.00
2018-05-09T02:05:42.465Z,0.00
2018-05-09T02:06:42.714Z,0.00
2018-05-09T02:07:42.378Z,0.00
2018-05-09T02:08:42.356Z,0.00
2018-05-09T02:09:42.423Z,0.00
2018-05-09T02:10:42.464Z,0.00
2018-05-09T02:11:42.468Z,0.00
2018-05-09T02:12:42.791Z,0.00
2018-05-09T02:13:42.367Z,0.00
2018-05-09T02:14:42.359Z,0.00
2018-05-09T02:15:42.359Z,0.00
2018-05-09T02:16:42.289Z,0.00
2018-05-09T02:17:42.335Z,0.00
2018-05-09T02:18:42.535Z,0.00
2018-05-09T02:19:42.200Z,0.00
2018-05-09T02:20:42.174Z,0.00
2018-05-09T02:22:42.244Z,0.00
2018-05-09T02:23:42.180Z,0.00
2018-05-09T02:24:42.420Z,0.00
2018-05-09T02:25:42.101Z,0.00
2018-05-09T02:26:42.173Z,0.00
2018-05-09T02:27:42.075Z,0.00
2018-05-09T02:28:42.311Z,0.00
2018-05-09T02:29:42.223Z,0.00
2018-05-09T02:30:42.332Z,0.00
2018-05-09T02:32:42.055Z,0.00
2018-05-09T02:33:41.978Z,0.00
2018-05-09T02:34:42.026Z,0.00
2018-05-09T02:35:42.186Z,0.00
2018-05-09T02:36:42.239Z,0.00
2018-05-09T02:37:41.926Z,0.00
2018-05-09T02:38:41.890Z,0.00
2018-05-09T02:39:41.971Z,0.00
2018-05-09T02:40:41.916Z,0.00
2018-05-09T02:41:41.905Z,0.00
2018-05-09T02:42:42.159Z,0.00
2018-05-09T02:43:41.829Z,0.00
2018-05-09T02:44:41.815Z,0.00
2018-05-09T02:45:41.792Z,0.00
2018-05-09T02:46:41.886Z,0.00
2018-05-09T02:47:41.854Z,0.00
2018-05-09T02:48:42.078Z,0.00
2018-05-09T02:49:41.803Z,0.00
2018-05-09T02:50:41.711Z,0.00
2018-05-09T02:52:41.719Z,0.00
2018-05-09T02:53:41.712Z,0.00
2018-05-09T02:54:41.638Z,0.00
2018-05-09T02:55:41.923Z,0.00
2018-05-09T02:56:41.627Z,0.00
2018-05-09T02:57:41.694Z,0.00
2018-05-09T02:58:41.787Z,0.00
2018-05-09T02:59:41.801Z,0.00
2018-05-09T03:00:41.775Z,0.00
2018-05-09T03:01:41.665Z,0.00
2018-05-09T03:02:41.945Z,0.00
2018-05-09T03:03:41.587Z,0.00
2018-05-09T03:04:41.657Z,0.00
2018-05-09T03:05:42.230Z,0.00
2018-05-09T03:06:41.538Z,0.00
2018-05-09T03:07:41.455Z,0.00
2018-05-09T03:08:41.432Z,0.00
2018-05-09T03:09:41.720Z,0.00
2018-05-09T03:10:41.385Z,0.00
2018-05-09T03:11:41.431Z,0.00
2018-05-09T03:13:41.437Z,0.00
2018-05-09T03:14:41.326Z,0.00
2018-05-09T03:15:41.310Z,0.00
2018-05-09T03:16:41.800Z,0.00
2018-05-09T03:17:41.329Z,0.00
2018-05-09T03:19:41.361Z,0.00
2018-05-09T03:20:41.982Z,0.00
2018-05-09T03:21:42.789Z,0.00
2018-05-09T03:22:41.265Z,0.00
2018-05-09T03:23:41.498Z,0.00
2018-05-09T03:24:41.199Z,0.00
2018-05-09T03:25:41.260Z,0.00
2018-05-09T03:27:41.169Z,5.63
2018-05-09T03:28:41.170Z,5.63
2018-05-09T03:29:41.145Z,5.63
2018-05-09T03:30:41.493Z,5.63
2018-05-09T03:31:41.134Z,5.63
2018-05-09T03:32:41.111Z,5.63
2018-05-09T03:33:41.073Z,5.63
2018-05-09T03:34:41.105Z,11.25
2018-05-09T03:35:40.996Z,11.25
2018-05-09T03:36:40.965Z,11.25
2018-05-09T03:37:41.264Z,11.25
2018-05-09T03:38:40.942Z,11.25
2018-05-09T03:39:40.983Z,11.25
2018-05-09T03:40:40.962Z,11.25
2018-05-09T03:42:40.918Z,16.88
2018-05-09T03:43:40.861Z,16.88
2018-05-09T03:44:41.145Z,16.88
2018-05-09T03:45:40.986Z,16.88
2018-05-09T03:46:40.990Z,22.50
2018-05-09T03:47:40.921Z,22.50
2018-05-09T03:48:40.778Z,22.50
2018-05-09T03:49:40.776Z,22.50
2018-05-09T03:50:41.053Z,22.50
2018-05-09T03:51:40.834Z,22.50
2018-05-09T03:52:40.818Z,28.13
2018-05-09T03:53:40.754Z,28.13
2018-05-09T03:54:40.942Z,28.13
2018-05-09T03:55:40.675Z,28.13
2018-05-09T03:56:40.962Z,33.75
2018-05-09T03:57:40.651Z,33.75
2018-05-09T03:59:40.708Z,33.75
2018-05-09T04:00:40.698Z,33.75
2018-05-09T04:01:41.030Z,39.38
2018-05-09T04:02:40.859Z,39.38
2018-05-09T04:03:40.552Z,39.38
2018-05-09T04:04:40.584Z,39.38
2018-05-09T04:05:40.513Z,39.38
2018-05-09T04:07:40.846Z,45.00
2018-05-09T04:08:41.273Z,45.00
2018-05-09T04:10:41.161Z,50.63
2018-05-09T04:11:40.528Z,50.63
2018-05-09T04:12:40.464Z,50.63
2018-05-09T04:13:40.505Z,50.63
2018-05-09T04:14:40.533Z,50.63
2018-05-09T04:15:40.401Z,56.25
2018-05-09T04:16:40.660Z,56.25
2018-05-09T04:17:40.322Z,56.25
2018-05-09T04:18:40.609Z,56.25
2018-05-09T04:20:40.424Z,61.88
2018-05-09T04:21:40.305Z,61.88
2018-05-09T04:22:40.584Z,61.88
2018-05-09T04:23:40.213Z,61.88
2018-05-09T04:24:40.196Z,61.88
2018-05-09T04:27:40.423Z,67.50
2018-05-09T04:28:40.255Z,67.50
2018-05-09T04:29:40.701Z,67.50
2018-05-09T04:30:40.103Z,73.13
2018-05-09T04:31:40.180Z,73.13
2018-05-09T04:32:40.177Z,73.13
2018-05-09T04:34:40.084Z,73.13
2018-05-09T04:35:40.194Z,78.75
2018-05-09T04:36:40.137Z,78.75
2018-05-09T04:37:40.002Z,78.75
2018-05-09T04:38:40.050Z,78.75
2018-05-09T04:39:40.303Z,78.75
2018-05-09T04:40:39.967Z,84.38
2018-05-09T04:41:39.982Z,84.38
2018-05-09T04:42:40.258Z,84.38
2018-05-09T04:43:39.947Z,84.38
2018-05-09T04:44:39.878Z,84.38
2018-05-09T04:45:39.868Z,84.38
2018-05-09T04:46:39.865Z,90.00
2018-05-09T04:47:39.835Z,90.00
2018-05-09T04:50:39.856Z,90.00
2018-05-09T04:51:39.778Z,95.63
2018-05-09T04:52:39.937Z,95.63
2018-05-09T04:53:39.772Z,95.63
2018-05-09T04:54:44.753Z,95.63
2018-05-09T04:55:39.835Z,95.63
2018-05-09T04:56:41.480Z,95.63
2018-05-09T04:57:39.688Z,101.25
2018-05-09T04:58:39.664Z,101.25
2018-05-09T04:59:39.714Z,101.25
2018-05-09T05:00:39.706Z,101.25
2018-05-09T05:01:39.673Z,101.25
2018-05-09T05:02:39.687Z,101.25
2018-05-09T05:03:39.883Z,106.88
2018-05-09T05:04:39.572Z,106.88
2018-05-09T05:05:39.628Z,106.88
2018-05-09T05:06:39.805Z,106.88
2018-05-09T05:07:39.545Z,106.88
2018-05-09T05:08:39.522Z,106.88
2018-05-09T05:09:39.819Z,112.50
2018-05-09T05:10:39.479Z,112.50
2018-05-09T05:11:39.564Z,112.50
2018-05-09T05:12:39.674Z,112.50
2018-05-09T05:13:39.488Z,112.50
2018-05-09T05:14:39.425Z,112.50
2018-05-09T05:15:39.782Z,118.13
2018-05-09T05:16:39.471Z,118.13
2018-05-09T05:17:39.463Z,118.13
2018-05-09T05:18:39.496Z,118.13
2018-05-09T05:19:39.486Z,118.13
2018-05-09T05:20:39.419Z,123.75
2018-05-09T05:21:39.643Z,123.75
2018-05-09T05:22:39.317Z,123.75
2018-05-09T05:23:39.374Z,123.75
2018-05-09T05:24:39.331Z,123.75
2018-05-09T05:25:39.447Z,123.75
2018-05-09T05:26:39.399Z,129.38
2018-05-09T05:27:39.557Z,129.38
2018-05-09T05:28:39.314Z,129.38
2018-05-09T05:29:39.273Z,129.38
2018-05-09T05:30:39.267Z,129.38
2018-05-09T05:31:39.224Z,135.00
2018-05-09T05:32:39.445Z,135.00
2018-05-09T05:33:39.464Z,135.00
2018-05-09T05:34:39.141Z,135.00
2018-05-09T05:35:39.118Z,135.00
2018-05-09T05:36:39.117Z,140.63
2018-05-09T05:37:39.097Z,140.63
2018-05-09T05:38:39.353Z,140.63
2018-05-09T05:39:40.015Z,140.63
2018-05-09T05:40:39.061Z,140.63
2018-05-09T05:41:39.052Z,140.63
2018-05-09T05:42:39.030Z,146.25
2018-05-09T05:43:39.009Z,146.25
2018-05-09T05:44:39.201Z,146.25
2018-05-09T05:45:39.294Z,146.25
2018-05-09T05:46:39.042Z,146.25
2018-05-09T05:47:39.005Z,151.88
2018-05-09T05:48:38.961Z,151.88
2018-05-09T05:49:38.929Z,151.88
2018-05-09T05:50:38.976Z,151.88
2018-05-09T05:51:39.252Z,151.88
2018-05-09T05:52:39.159Z,151.88
2018-05-09T05:53:38.905Z,157.50
2018-05-09T05:54:38.865Z,157.50
2018-05-09T05:55:38.846Z,157.50
2018-05-09T05:56:38.842Z,157.50
2018-05-09T05:57:38.825Z,157.50
2018-05-09T05:58:38.913Z,157.50
2018-05-09T05:59:38.851Z,163.13
2018-05-09T06:00:38.853Z,163.13
2018-05-09T06:01:38.782Z,163.13
2018-05-09T06:02:38.861Z,163.13
2018-05-09T06:03:38.755Z,163.13
2018-05-09T06:04:39.077Z,163.13
2018-05-09T06:05:38.772Z,168.75
2018-05-09T06:06:38.711Z,168.75
2018-05-09T06:07:38.715Z,168.75
2018-05-09T06:08:38.675Z,168.75
2018-05-09T06:09:38.675Z,168.75
2018-05-09T06:10:39.006Z,174.38
2018-05-09T06:11:39.452Z,174.38
2018-05-09T06:12:38.632Z,174.38
2018-05-09T06:13:38.621Z,174.38
2018-05-09T06:14:38.601Z,174.38
2018-05-09T06:15:38.586Z,174.38
2018-05-09T06:16:38.581Z,180.00
2018-05-09T06:17:38.926Z,180.00
2018-05-09T06:18:38.612Z,180.00
2018-05-09T06:19:38.592Z,180.00
2018-05-09T06:20:38.540Z,180.00
2018-05-09T06:21:38.658Z,185.63
2018-05-09T06:22:38.663Z,185.63
2018-05-09T06:24:38.834Z,185.63
2018-05-09T06:25:38.520Z,185.63
2018-05-09T06:26:38.543Z,191.25
2018-05-09T06:27:38.452Z,191.25
2018-05-09T06:28:38.436Z,191.25
2018-05-09T06:30:38.836Z,191.25
2018-05-09T06:31:38.540Z,191.25
2018-05-09T06:32:38.504Z,191.25
2018-05-09T06:33:38.454Z,196.88
2018-05-09T06:34:38.537Z,196.88
2018-05-09T06:35:38.442Z,196.88
2018-05-09T06:36:38.447Z,196.88
2018-05-09T06:37:38.871Z,202.50
2018-05-09T06:38:38.467Z,202.50
2018-05-09T06:40:38.386Z,202.50
2018-05-09T06:41:38.285Z,202.50
2018-05-09T06:42:38.274Z,208.13
2018-05-09T06:43:38.634Z,208.13
2018-05-09T06:44:38.994Z,208.13
2018-05-09T06:45:38.233Z,208.13
2018-05-09T06:47:38.217Z,213.75
2018-05-09T06:49:38.488Z,213.75
2018-05-09T06:50:38.226Z,213.75
2018-05-09T06:51:38.256Z,213.75
2018-05-09T06:52:38.198Z,219.38
2018-05-09T06:53:38.207Z,219.38
2018-05-09T06:54:38.224Z,219.38
2018-05-09T06:55:38.421Z,219.38
2018-05-09T06:56:38.150Z,225.00
2018-05-09T06:57:38.160Z,225.00
2018-05-09T06:58:38.079Z,225.00
2018-05-09T06:59:38.073Z,225.00
2018-05-09T07:00:38.143Z,225.00
2018-05-09T07:02:38.489Z,225.00
2018-05-09T07:03:38.172Z,225.00
2018-05-09T07:04:38.162Z,225.00
2018-05-09T07:05:38.016Z,230.63
2018-05-09T07:06:38.281Z,230.63
2018-05-09T07:07:37.987Z,230.63
2018-05-09T07:08:38.023Z,230.63
2018-05-09T07:09:38.085Z,236.25
2018-05-09T07:10:37.954Z,236.25
2018-05-09T07:11:37.947Z,236.25
2018-05-09T07:12:38.182Z,236.25
2018-05-09T07:13:37.988Z,241.88
2018-05-09T07:14:38.340Z,241.88
2018-05-09T07:15:37.947Z,241.88
2018-05-09T07:16:37.960Z,241.88
2018-05-09T07:17:37.948Z,247.50
2018-05-09T07:18:37.866Z,247.50
2018-05-09T07:19:37.938Z,253.13
2018-05-09T07:20:38.326Z,258.75
2018-05-09T07:21:37.904Z,258.75
2018-05-09T07:22:37.906Z,264.38
2018-05-09T07:24:37.872Z,286.88
2018-05-09T07:25:37.855Z,292.50
2018-05-09T07:26:37.784Z,298.13
2018-05-09T07:27:38.082Z,309.38
2018-05-09T07:28:37.910Z,309.38
2018-05-09T07:29:37.762Z,309.38
2018-05-09T07:30:37.903Z,315.00
2018-05-09T07:31:37.777Z,315.00
2018-05-09T07:32:37.829Z,315.00
2018-05-09T07:33:37.938Z,315.00
2018-05-09T07:35:38.022Z,320.63
2018-05-09T07:37:37.676Z,326.25
2018-05-09T07:38:37.733Z,326.25
2018-05-09T07:41:38.109Z,331.88
2018-05-09T07:43:37.633Z,331.88
2018-05-09T07:44:37.742Z,337.50
2018-05-09T07:45:38.407Z,337.50
2018-05-09T07:46:37.683Z,337.50
2018-05-09T07:47:37.980Z,337.50
2018-05-09T07:48:37.584Z,343.13
2018-05-09T07:49:37.593Z,343.13
2018-05-09T07:50:37.577Z,343.13
2018-05-09T07:51:37.663Z,343.13
2018-05-09T07:52:37.856Z,337.50
2018-05-09T07:53:37.856Z,343.13
2018-05-09T07:54:37.553Z,343.13
2018-05-09T07:55:37.661Z,343.13
2018-05-09T07:56:37.641Z,348.75
2018-05-09T07:57:38.110Z,348.75
2018-05-09T07:58:37.994Z,354.38
2018-05-09T07:59:37.823Z,354.38
2018-05-09T08:00:38.106Z,354.38
2018-05-09T08:01:37.646Z,360.00
2018-05-09T08:02:37.500Z,360.00
2018-05-09T08:04:37.592Z,365.63
2018-05-09T08:05:37.537Z,365.63
2018-05-09T08:06:37.489Z,371.25
2018-05-09T08:07:37.862Z,371.25
2018-05-09T08:09:37.465Z,376.88
2018-05-09T08:10:37.522Z,376.88
2018-05-09T08:11:38.701Z,382.50
2018-05-09T08:12:37.604Z,382.50
2018-05-09T08:13:37.759Z,382.50
2018-05-09T08:14:37.539Z,382.50
2018-05-09T08:15:37.439Z,388.13
2018-05-09T08:16:37.484Z,388.13
2018-05-09T08:17:37.483Z,399.38
2018-05-09T08:18:37.678Z,399.38
2018-05-09T08:19:37.734Z,399.38
2018-05-09T08:20:37.418Z,405.00
2018-05-09T08:21:37.489Z,405.00
2018-05-09T08:22:37.428Z,410.63
2018-05-09T08:23:37.402Z,410.63
2018-05-09T08:24:37.457Z,421.88
2018-05-09T08:25:39.572Z,416.25
2018-05-09T08:26:37.407Z,416.25
2018-05-09T08:27:37.470Z,421.88
2018-05-09T08:28:37.474Z,427.50
2018-05-09T08:29:37.393Z,427.50
2018-05-09T08:30:37.392Z,433.13
2018-05-09T08:31:37.730Z,438.75
2018-05-09T08:32:37.437Z,444.38
2018-05-09T08:34:37.481Z,455.63
2018-05-09T08:35:37.376Z,461.25
2018-05-09T08:36:37.403Z,466.88
2018-05-09T08:37:37.480Z,472.50
2018-05-09T08:38:37.824Z,478.13
2018-05-09T08:39:37.524Z,483.75
2018-05-09T08:40:37.512Z,483.75
2018-05-09T08:41:37.437Z,489.38
2018-05-09T08:42:37.366Z,495.00
2018-05-09T08:43:37.468Z,500.63
2018-05-09T08:44:37.654Z,511.88
2018-05-09T08:45:37.668Z,517.50
2018-05-09T08:46:37.466Z,523.13
2018-05-09T08:47:37.458Z,534.38
2018-05-09T08:48:37.460Z,545.63
2018-05-09T08:50:37.661Z,551.25
2018-05-09T08:51:37.417Z,562.50
2018-05-09T08:52:37.497Z,562.50
2018-05-09T08:53:37.354Z,568.13
2018-05-09T08:54:37.351Z,573.75
2018-05-09T08:55:37.344Z,579.38
2018-05-09T08:56:37.655Z,590.63
2018-05-09T08:57:37.676Z,590.63
2018-05-09T08:58:37.420Z,601.88
2018-05-09T08:59:37.343Z,607.50
2018-05-09T09:00:37.423Z,618.75
2018-05-09T09:01:37.425Z,624.38
2018-05-09T09:02:37.647Z,630.00
2018-05-09T09:03:37.529Z,641.25
2018-05-09T09:04:37.445Z,646.88
2018-05-09T09:05:37.350Z,652.50
2018-05-09T09:06:37.348Z,675.00
2018-05-09T09:07:37.342Z,680.63
2018-05-09T09:08:37.647Z,691.88
2018-05-09T09:09:38.594Z,708.75
2018-05-09T09:10:37.391Z,720.00
2018-05-09T09:11:37.345Z,736.88
2018-05-09T09:12:37.353Z,759.38
2018-05-09T09:14:37.776Z,826.88
2018-05-09T09:15:37.493Z,866.25
2018-05-09T09:16:37.481Z,1102.50
2018-05-09T09:17:37.581Z,2182.50
2018-05-09T09:18:37.398Z,3256.88
2018-05-09T09:19:37.350Z,3358.13
2018-05-09T09:20:37.854Z,3661.88
2018-05-09T09:21:37.395Z,3802.50
2018-05-09T09:22:37.398Z,3650.63
2018-05-09T09:23:37.411Z,3611.25
2018-05-09T09:24:37.359Z,3650.63
2018-05-09T09:25:37.385Z,3808.13
2018-05-09T09:26:37.351Z,3825.00
2018-05-09T09:27:37.706Z,3690.00
2018-05-09T09:28:37.412Z,3785.63
2018-05-09T09:29:37.463Z,3723.75
2018-05-09T09:30:37.361Z,3611.25
2018-05-09T09:31:37.361Z,3408.75
2018-05-09T09:32:37.374Z,3780.00
2018-05-09T09:33:37.614Z,4185.00
2018-05-09T09:34:37.664Z,3976.88
2018-05-09T09:35:37.360Z,3841.88
2018-05-09T09:36:37.369Z,3875.63
2018-05-09T09:37:37.377Z,3903.75
2018-05-09T09:38:37.461Z,3976.88
2018-05-09T09:39:37.429Z,4106.25
2018-05-09T09:40:37.729Z,4072.50
2018-05-09T09:41:37.379Z,3780.00
2018-05-09T09:42:37.379Z,3999.38
2018-05-09T09:43:37.378Z,3965.63
2018-05-09T09:44:37.410Z,3780.00
2018-05-09T09:46:39.418Z,4016.25
2018-05-09T09:47:38.256Z,3751.88
2018-05-09T09:48:37.386Z,3735.00
2018-05-09T09:49:37.418Z,3774.38
2018-05-09T09:50:37.432Z,3796.88
2018-05-09T09:51:38.900Z,3892.50
2018-05-09T09:52:37.849Z,3931.88
2018-05-09T09:53:38.376Z,4010.63
2018-05-09T09:54:37.533Z,4196.25
2018-05-09T09:55:37.503Z,4213.13
2018-05-09T09:56:37.513Z,3971.25
2018-05-09T09:57:38.923Z,3813.75
2018-05-09T09:58:37.733Z,4021.88
2018-05-09T09:59:37.632Z,4235.63
2018-05-09T10:00:37.449Z,4196.25
2018-05-09T10:01:37.528Z,4179.38
2018-05-09T10:02:37.424Z,4117.50
2018-05-09T10:03:37.485Z,4050.00
2018-05-09T10:04:37.584Z,4072.50
2018-05-09T10:05:37.738Z,4128.75
2018-05-09T10:06:37.431Z,3993.75
2018-05-09T10:07:37.534Z,3960.00
2018-05-09T10:08:37.998Z,3785.63
2018-05-09T10:09:37.490Z,3695.63
2018-05-09T10:11:37.807Z,4100.63
2018-05-09T10:12:37.460Z,4005.00
2018-05-09T10:13:37.449Z,3892.50
2018-05-09T10:14:37.466Z,3735.00
2018-05-09T10:15:37.623Z,3448.13
2018-05-09T10:17:37.838Z,3909.38
2018-05-09T10:18:37.475Z,3763.13
2018-05-09T10:19:37.608Z,3971.25
2018-05-09T10:20:37.849Z,3976.88
2018-05-09T10:21:40.090Z,3825.00
2018-05-09T10:22:37.479Z,3678.75
2018-05-09T10:23:37.851Z,3549.38
2018-05-09T10:24:37.512Z,3352.50
2018-05-09T10:25:37.557Z,3571.88
2018-05-09T10:26:37.493Z,3718.13
2018-05-09T10:27:37.563Z,2705.63
2018-05-09T10:28:37.703Z,1462.50
2018-05-09T10:29:37.506Z,1136.25
2018-05-09T10:30:37.512Z,1068.75
2018-05-09T10:31:37.614Z,1046.25
2018-05-09T10:32:37.526Z,1023.75
2018-05-09T10:34:37.869Z,1018.13
2018-05-09T10:35:37.657Z,1001.25
2018-05-09T10:36:37.658Z,1001.25
2018-05-09T10:37:37.544Z,990.00
2018-05-09T10:38:37.612Z,990.00
2018-05-09T10:39:37.611Z,990.00
2018-05-09T10:40:37.865Z,984.38
2018-05-09T10:41:37.595Z,978.75
2018-05-09T10:42:37.597Z,990.00
2018-05-09T10:43:37.609Z,1001.25
2018-05-09T10:44:37.573Z,995.63
2018-05-09T10:45:37.567Z,1001.25
2018-05-09T10:46:37.874Z,1012.50
2018-05-09T10:47:37.659Z,1023.75
2018-05-09T10:48:37.676Z,1063.13
2018-05-09T10:49:37.632Z,1080.00
2018-05-09T10:50:37.598Z,1248.75
2018-05-09T10:51:37.657Z,2064.38
2018-05-09T10:52:37.905Z,3510.00
2018-05-09T10:53:37.611Z,3796.88
2018-05-09T10:55:37.684Z,3611.25
2018-05-09T10:56:37.736Z,3690.00
2018-05-09T10:57:37.690Z,3723.75
2018-05-09T10:59:37.951Z,2998.13
2018-05-09T11:00:37.659Z,3363.75
2018-05-09T11:02:40.850Z,3673.13
2018-05-09T11:03:37.646Z,3661.88
2018-05-09T11:04:37.666Z,3476.25
2018-05-09T11:05:37.951Z,3363.75
2018-05-09T11:06:37.659Z,3346.88
2018-05-09T11:07:37.659Z,3549.38
2018-05-09T11:08:38.959Z,3616.88
2018-05-09T11:09:37.759Z,3622.50
2018-05-09T11:10:37.863Z,3588.75
2018-05-09T11:11:37.976Z,3594.38
2018-05-09T11:12:37.677Z,3346.88
2018-05-09T11:13:37.696Z,3195.00
2018-05-09T11:14:37.782Z,3240.00
2018-05-09T11:15:37.961Z,3127.50
2018-05-09T11:16:37.698Z,3240.00
2018-05-09T11:17:38.051Z,2210.63
2018-05-09T11:18:37.731Z,1203.75
2018-05-09T11:19:37.712Z,984.38
2018-05-09T11:20:37.715Z,945.00
2018-05-09T11:21:37.828Z,916.88
2018-05-09T11:22:37.986Z,894.38
2018-05-09T11:23:38.039Z,900.00
2018-05-09T11:24:37.752Z,888.75
2018-05-09T11:25:37.733Z,894.38
2018-05-09T11:26:37.733Z,883.13
2018-05-09T11:27:37.793Z,866.25
2018-05-09T11:28:37.854Z,855.00
2018-05-09T11:29:38.047Z,855.00
2018-05-09T11:30:37.769Z,843.75
2018-05-09T11:31:37.754Z,832.50
2018-05-09T11:32:37.761Z,821.25
2018-05-09T11:33:37.867Z,810.00
2018-05-09T11:34:40.647Z,798.75
2018-05-09T11:35:38.095Z,804.38
2018-05-09T11:36:37.789Z,798.75
2018-05-09T11:38:37.813Z,793.13
2018-05-09T11:39:37.810Z,793.13
2018-05-09T11:40:37.906Z,781.88
2018-05-09T11:42:38.285Z,787.50
2018-05-09T11:43:37.863Z,781.88
2018-05-09T11:44:37.858Z,781.88
2018-05-09T11:45:37.837Z,787.50
2018-05-09T11:46:38.084Z,787.50
2018-05-09T11:47:38.133Z,787.50
2018-05-09T11:48:37.842Z,787.50
2018-05-09T11:49:37.878Z,793.13
2018-05-09T11:51:38.236Z,798.75
2018-05-09T11:52:38.016Z,787.50
2018-05-09T11:53:38.218Z,793.13
2018-05-09T11:54:37.872Z,810.00
2018-05-09T11:55:38.238Z,798.75
2018-05-09T11:56:39.180Z,804.38
2018-05-09T11:57:37.906Z,804.38
2018-05-09T11:58:38.093Z,821.25
2018-05-09T11:59:38.400Z,832.50
2018-05-09T12:00:39.578Z,826.88
2018-05-09T12:02:40.940Z,826.88
2018-05-09T12:03:38.130Z,815.63
2018-05-09T12:04:38.067Z,821.25
2018-05-09T12:05:38.253Z,826.88
2018-05-09T12:06:38.241Z,826.88
2018-05-09T12:07:37.942Z,849.38
2018-05-09T12:09:38.143Z,900.00
2018-05-09T12:10:38.087Z,933.75
2018-05-09T12:11:38.264Z,939.38
2018-05-09T12:12:38.081Z,990.00
2018-05-09T12:13:38.185Z,1068.75
2018-05-09T12:14:38.596Z,1395.00
2018-05-09T12:15:37.970Z,2064.38
2018-05-09T12:16:37.979Z,2632.50
2018-05-09T12:17:38.282Z,2840.63
2018-05-09T12:18:37.996Z,2694.38
2018-05-09T12:19:38.044Z,2570.63
2018-05-09T12:20:38.100Z,2761.88
2018-05-09T12:21:38.012Z,2424.38
2018-05-09T12:22:38.145Z,2469.38
2018-05-09T12:23:38.320Z,2587.50
2018-05-09T12:24:38.232Z,1305.00
2018-05-09T12:25:38.080Z,388.13
2018-05-09T12:26:38.632Z,2610.00
2018-05-09T12:27:38.040Z,2660.63
2018-05-09T12:28:38.106Z,2925.00
2018-05-09T12:30:38.349Z,2829.38
2018-05-09T12:31:41.349Z,2739.38
2018-05-09T12:32:38.058Z,2649.38
2018-05-09T12:33:38.058Z,2638.13
2018-05-09T12:34:38.058Z,2851.88
2018-05-09T12:35:38.139Z,2615.63
2018-05-09T12:36:38.438Z,2002.50
2018-05-09T12:37:38.195Z,1456.88
2018-05-09T12:38:38.174Z,1198.13
2018-05-09T12:39:38.148Z,1096.88
2018-05-09T12:40:38.162Z,1040.63
2018-05-09T12:41:38.089Z,990.00
2018-05-09T12:42:38.923Z,916.88
2018-05-09T12:43:38.270Z,894.38
2018-05-09T12:44:38.253Z,883.13
2018-05-09T12:46:38.214Z,877.50
2018-05-09T12:47:38.222Z,883.13
2018-05-09T12:48:38.199Z,916.88
2018-05-09T12:49:38.473Z,956.25
2018-05-09T12:50:38.162Z,961.88
2018-05-09T12:51:38.124Z,990.00
2018-05-09T12:52:38.129Z,978.75
2018-05-09T12:54:38.525Z,939.38
2018-05-09T12:55:38.493Z,933.75
2018-05-09T12:56:38.195Z,945.00
2018-05-09T12:57:38.401Z,928.13
2018-05-09T12:58:38.155Z,877.50
2018-05-09T12:59:38.258Z,838.13
2018-05-09T13:00:38.161Z,821.25
2018-05-09T13:01:38.160Z,826.88
2018-05-09T13:02:38.475Z,843.75
2018-05-09T13:03:38.219Z,810.00
2018-05-09T13:04:38.234Z,821.25
2018-05-09T13:05:38.185Z,804.38
2018-05-09T13:06:38.258Z,832.50
2018-05-09T13:07:38.460Z,821.25
2018-05-09T13:08:38.517Z,534.38
2018-05-09T13:09:38.324Z,641.25
2018-05-09T13:10:38.340Z,860.63
2018-05-09T13:11:38.207Z,871.88
2018-05-09T13:12:38.356Z,894.38
2018-05-09T13:13:38.324Z,905.63
2018-05-09T13:14:38.625Z,905.63
2018-05-09T13:15:38.385Z,911.25
2018-05-09T13:16:38.389Z,911.25
2018-05-09T13:17:38.444Z,871.88
2018-05-09T13:18:38.400Z,843.75
2018-05-09T13:19:38.729Z,826.88
2018-05-09T13:20:38.782Z,815.63
2018-05-09T13:21:38.271Z,793.13
2018-05-09T13:22:38.263Z,793.13
2018-05-09T13:23:38.264Z,793.13
2018-05-09T13:24:38.271Z,798.75
2018-05-09T13:25:38.550Z,810.00
2018-05-09T13:26:38.588Z,832.50
2018-05-09T13:27:38.422Z,849.38
2018-05-09T13:28:38.283Z,855.00
2018-05-09T13:29:38.307Z,849.38
2018-05-09T13:30:38.309Z,860.63
2018-05-09T13:32:39.108Z,939.38
2018-05-09T13:33:38.419Z,1012.50
2018-05-09T13:34:38.381Z,1018.13
2018-05-09T13:35:38.323Z,573.75
2018-05-09T13:36:39.019Z,556.88
2018-05-09T13:37:38.965Z,438.75
2018-05-09T13:38:40.051Z,1563.75
2018-05-09T13:39:38.440Z,1580.63
2018-05-09T13:40:38.450Z,1411.88
2018-05-09T13:41:38.397Z,433.13
2018-05-09T13:42:38.344Z,506.25
2018-05-09T13:43:38.342Z,883.13
2018-05-09T13:44:39.032Z,826.88
2018-05-09T13:45:38.418Z,365.63